sensor_id;sensor_type;location;lat;lon;timestamp;P1;durP1;ratioP1;P2;durP2;ratioP2
35540;SDS011;21650;48.840;9.162;2024-03-23T00:55:33;2.30;;;2.10;;
35540;SDS011;21650;48.840;9.162;2024-03-23T00:57:59;1.90;;;1.80;;
35540;SDS011;21650;48.840;9.162;2024-03-23T01:00:24;3.50;;;1.50;;
35540;SDS011;21650;48.840;9.162;2024-03-23T01:02:50;2.10;;;1.17;;
35540;SDS011;21650;48.840;9.162;2024-03-23T01:05:15;3.33;;;1.67;;
35540;SDS011;21650;48.840;9.162;2024-03-23T01:07:41;0.70;;;0.70;;
35540;SDS011;21650;48.840;9.162;2024-03-23T01:10:07;1.63;;;1.20;;
35540;SDS011;21650;48.840;9.162;2024-03-23T01:12:32;1.50;;;0.90;;
35540;SDS011;21650;48.840;9.162;2024-03-23T01:14:58;1.67;;;1.57;;
35540;SDS011;21650;48.840;9.162;2024-03-23T01:17:23;1.07;;;0.83;;
35540;SDS011;21650;48.840;9.162;2024-03-23T01:19:49;0.87;;;0.87;;
35540;SDS011;21650;48.840;9.162;2024-03-23T01:22:15;3.10;;;1.13;;
35540;SDS011;21650;48.840;9.162;2024-03-23T01:24:40;3.27;;;1.73;;
35540;SDS011;21650;48.840;9.162;2024-03-23T01:27:06;1.37;;;0.50;;
35540;SDS011;21650;48.840;9.162;2024-03-23T01:29:31;1.23;;;0.80;;
35540;SDS011;21650;48.840;9.162;2024-03-23T01:31:57;0.97;;;0.83;;
35540;SDS011;21650;48.840;9.162;2024-03-23T01:34:22;1.33;;;0.87;;
35540;SDS011;21650;48.840;9.162;2024-03-23T01:36:49;0.43;;;0.43;;
35540;SDS011;21650;48.840;9.162;2024-03-23T01:39:15;0.27;;;0.27;;
35540;SDS011;21650;48.840;9.162;2024-03-23T01:41:41;0.40;;;0.40;;
35540;SDS011;21650;48.840;9.162;2024-03-23T01:44:08;0.40;;;0.40;;
35540;SDS011;21650;48.840;9.162;2024-03-23T01:46:34;0.67;;;0.67;;
35540;SDS011;21650;48.840;9.162;2024-03-23T01:49:01;1.87;;;0.30;;
35540;SDS011;21650;48.840;9.162;2024-03-23T01:51:27;0.40;;;0.40;;
35540;SDS011;21650;48.840;9.162;2024-03-23T01:53:54;1.40;;;0.30;;
35540;SDS011;21650;48.840;9.162;2024-03-23T01:56:22;0.20;;;0.20;;
35540;SDS011;21650;48.840;9.162;2024-03-23T01:58:47;0.43;;;0.43;;
35540;SDS011;21650;48.840;9.162;2024-03-23T02:01:13;0.37;;;0.30;;
35540;SDS011;21650;48.840;9.162;2024-03-23T02:03:38;0.73;;;0.33;;
35540;SDS011;21650;48.840;9.162;2024-03-23T02:06:04;0.27;;;0.27;;
35540;SDS011;21650;48.840;9.162;2024-03-23T02:08:32;0.60;;;0.60;;
35540;SDS011;21650;48.840;9.162;2024-03-23T02:10:58;1.03;;;0.63;;
35540;SDS011;21650;48.840;9.162;2024-03-23T02:13:23;1.27;;;0.73;;
35540;SDS011;21650;48.840;9.162;2024-03-23T02:15:49;1.20;;;0.80;;
35540;SDS011;21650;48.840;9.162;2024-03-23T02:18:15;0.33;;;0.30;;
35540;SDS011;21650;48.840;9.162;2024-03-23T02:20:40;1.00;;;0.70;;
35540;SDS011;21650;48.840;9.162;2024-03-23T02:23:12;1.93;;;0.83;;
35540;SDS011;21650;48.840;9.162;2024-03-23T02:25:41;0.30;;;0.20;;
35540;SDS011;21650;48.840;9.162;2024-03-23T02:28:07;0.63;;;0.50;;
35540;SDS011;21650;48.840;9.162;2024-03-23T02:30:33;0.77;;;0.77;;
35540;SDS011;21650;48.840;9.162;2024-03-23T02:32:58;0.53;;;0.53;;
35540;SDS011;21650;48.840;9.162;2024-03-23T02:35:24;1.20;;;0.37;;
35540;SDS011;21650;48.840;9.162;2024-03-23T02:37:50;0.20;;;0.20;;
35540;SDS011;21650;48.840;9.162;2024-03-23T02:40:16;0.27;;;0.27;;
35540;SDS011;21650;48.840;9.162;2024-03-23T02:42:42;0.37;;;0.37;;
35540;SDS011;21650;48.840;9.162;2024-03-23T02:45:08;0.53;;;0.53;;
35540;SDS011;21650;48.840;9.162;2024-03-23T02:47:34;0.60;;;0.50;;
35540;SDS011;21650;48.840;9.162;2024-03-23T02:49:59;0.20;;;0.20;;
35540;SDS011;21650;48.840;9.162;2024-03-23T02:52:25;0.63;;;0.30;;
35540;SDS011;21650;48.840;9.162;2024-03-23T02:54:51;1.37;;;0.63;;
35540;SDS011;21650;48.840;9.162;2024-03-23T02:57:16;0.50;;;0.23;;
35540;SDS011;21650;48.840;9.162;2024-03-23T02:59:42;0.80;;;0.60;;
35540;SDS011;21650;48.840;9.162;2024-03-23T03:02:08;0.23;;;0.23;;
35540;SDS011;21650;48.840;9.162;2024-03-23T03:04:33;0.93;;;0.93;;
35540;SDS011;21650;48.840;9.162;2024-03-23T03:06:59;6.83;;;0.50;;
35540;SDS011;21650;48.840;9.162;2024-03-23T03:09:25;0.30;;;0.30;;
35540;SDS011;21650;48.840;9.162;2024-03-23T03:11:51;0.73;;;0.73;;
35540;SDS011;21650;48.840;9.162;2024-03-23T03:14:16;1.13;;;0.40;;
35540;SDS011;21650;48.840;9.162;2024-03-23T03:16:42;0.33;;;0.33;;
35540;SDS011;21650;48.840;9.162;2024-03-23T03:19:07;0.30;;;0.20;;
35540;SDS011;21650;48.840;9.162;2024-03-23T03:21:34;1.50;;;0.73;;
35540;SDS011;21650;48.840;9.162;2024-03-23T03:24:00;0.67;;;0.53;;
35540;SDS011;21650;48.840;9.162;2024-03-23T03:26:25;0.37;;;0.37;;
35540;SDS011;21650;48.840;9.162;2024-03-23T03:28:51;1.23;;;0.67;;
35540;SDS011;21650;48.840;9.162;2024-03-23T03:31:16;0.20;;;0.20;;
35540;SDS011;21650;48.840;9.162;2024-03-23T03:33:45;0.50;;;0.30;;
35540;SDS011;21650;48.840;9.162;2024-03-23T03:36:11;0.73;;;0.40;;
35540;SDS011;21650;48.840;9.162;2024-03-23T03:38:36;0.20;;;0.20;;
35540;SDS011;21650;48.840;9.162;2024-03-23T03:41:03;0.23;;;0.23;;
35540;SDS011;21650;48.840;9.162;2024-03-23T03:43:29;0.30;;;0.30;;
35540;SDS011;21650;48.840;9.162;2024-03-23T03:45:56;0.60;;;0.40;;
35540;SDS011;21650;48.840;9.162;2024-03-23T03:48:22;0.30;;;0.30;;
35540;SDS011;21650;48.840;9.162;2024-03-23T03:50:48;1.23;;;0.50;;
35540;SDS011;21650;48.840;9.162;2024-03-23T03:53:15;0.30;;;0.30;;
35540;SDS011;21650;48.840;9.162;2024-03-23T03:55:41;0.97;;;0.97;;
35540;SDS011;21650;48.840;9.162;2024-03-23T03:58:06;0.77;;;0.73;;
35540;SDS011;21650;48.840;9.162;2024-03-23T04:00:32;1.03;;;0.93;;
35540;SDS011;21650;48.840;9.162;2024-03-23T04:02:58;1.13;;;0.50;;
35540;SDS011;21650;48.840;9.162;2024-03-23T04:05:23;0.60;;;0.40;;
35540;SDS011;21650;48.840;9.162;2024-03-23T04:07:49;0.90;;;0.90;;
35540;SDS011;21650;48.840;9.162;2024-03-23T04:10:15;0.40;;;0.40;;
35540;SDS011;21650;48.840;9.162;2024-03-23T04:12:40;0.83;;;0.63;;
35540;SDS011;21650;48.840;9.162;2024-03-23T04:15:06;0.50;;;0.20;;
35540;SDS011;21650;48.840;9.162;2024-03-23T04:17:33;0.97;;;0.83;;
35540;SDS011;21650;48.840;9.162;2024-03-23T04:19:59;0.67;;;0.60;;
35540;SDS011;21650;48.840;9.162;2024-03-23T04:22:26;1.23;;;0.50;;
35540;SDS011;21650;48.840;9.162;2024-03-23T04:24:55;0.57;;;0.43;;
35540;SDS011;21650;48.840;9.162;2024-03-23T04:27:22;0.57;;;0.53;;
35540;SDS011;21650;48.840;9.162;2024-03-23T04:29:51;0.47;;;0.43;;
35540;SDS011;21650;48.840;9.162;2024-03-23T04:32:20;0.60;;;0.60;;
35540;SDS011;21650;48.840;9.162;2024-03-23T04:34:46;1.17;;;0.83;;
35540;SDS011;21650;48.840;9.162;2024-03-23T04:37:11;0.40;;;0.40;;
35540;SDS011;21650;48.840;9.162;2024-03-23T04:39:37;2.17;;;1.00;;
35540;SDS011;21650;48.840;9.162;2024-03-23T04:42:03;0.70;;;0.70;;
35540;SDS011;21650;48.840;9.162;2024-03-23T04:44:29;0.67;;;0.60;;
35540;SDS011;21650;48.840;9.162;2024-03-23T04:46:55;0.57;;;0.57;;
35540;SDS011;21650;48.840;9.162;2024-03-23T04:49:22;1.30;;;0.93;;
35540;SDS011;21650;48.840;9.162;2024-03-23T04:51:47;2.00;;;1.63;;
35540;SDS011;21650;48.840;9.162;2024-03-23T04:54:13;0.80;;;0.80;;
35540;SDS011;21650;48.840;9.162;2024-03-23T04:56:38;1.27;;;1.10;;
35540;SDS011;21650;48.840;9.162;2024-03-23T04:59:04;1.70;;;1.07;;
35540;SDS011;21650;48.840;9.162;2024-03-23T05:01:33;0.53;;;0.53;;
35540;SDS011;21650;48.840;9.162;2024-03-23T05:03:58;2.43;;;1.67;;
35540;SDS011;21650;48.840;9.162;2024-03-23T05:06:24;1.80;;;1.50;;
35540;SDS011;21650;48.840;9.162;2024-03-23T05:08:51;1.37;;;1.27;;
35540;SDS011;21650;48.840;9.162;2024-03-23T05:11:16;2.43;;;2.20;;
35540;SDS011;21650;48.840;9.162;2024-03-23T05:13:43;3.50;;;3.00;;
35540;SDS011;21650;48.840;9.162;2024-03-23T05:16:08;3.17;;;1.30;;
35540;SDS011;21650;48.840;9.162;2024-03-23T05:18:34;1.33;;;1.20;;
35540;SDS011;21650;48.840;9.162;2024-03-23T05:21:00;2.67;;;1.93;;
35540;SDS011;21650;48.840;9.162;2024-03-23T05:23:27;2.47;;;2.30;;
35540;SDS011;21650;48.840;9.162;2024-03-23T05:25:53;1.37;;;1.17;;
35540;SDS011;21650;48.840;9.162;2024-03-23T05:28:20;4.73;;;2.77;;
35540;SDS011;21650;48.840;9.162;2024-03-23T05:30:52;2.63;;;2.43;;
35540;SDS011;21650;48.840;9.162;2024-03-23T05:33:18;3.23;;;1.80;;
35540;SDS011;21650;48.840;9.162;2024-03-23T05:35:45;3.77;;;2.73;;
35540;SDS011;21650;48.840;9.162;2024-03-23T05:38:11;3.97;;;2.63;;
35540;SDS011;21650;48.840;9.162;2024-03-23T05:40:36;3.60;;;1.97;;
35540;SDS011;21650;48.840;9.162;2024-03-23T05:43:05;3.63;;;2.30;;
35540;SDS011;21650;48.840;9.162;2024-03-23T05:45:34;2.30;;;2.10;;
35540;SDS011;21650;48.840;9.162;2024-03-23T05:48:00;5.27;;;2.53;;
35540;SDS011;21650;48.840;9.162;2024-03-23T05:50:25;3.30;;;2.13;;
35540;SDS011;21650;48.840;9.162;2024-03-23T05:52:51;1.67;;;1.40;;
35540;SDS011;21650;48.840;9.162;2024-03-23T05:55:16;3.47;;;1.60;;
35540;SDS011;21650;48.840;9.162;2024-03-23T05:57:42;2.77;;;1.90;;
35540;SDS011;21650;48.840;9.162;2024-03-23T06:00:08;1.23;;;1.13;;
35540;SDS011;21650;48.840;9.162;2024-03-23T06:02:43;1.70;;;1.60;;
35540;SDS011;21650;48.840;9.162;2024-03-23T06:05:10;2.23;;;2.00;;
35540;SDS011;21650;48.840;9.162;2024-03-23T06:07:38;1.33;;;1.23;;
35540;SDS011;21650;48.840;9.162;2024-03-23T06:10:04;0.97;;;0.70;;
35540;SDS011;21650;48.840;9.162;2024-03-23T06:12:30;0.77;;;0.70;;
35540;SDS011;21650;48.840;9.162;2024-03-23T06:14:56;1.50;;;0.63;;
35540;SDS011;21650;48.840;9.162;2024-03-23T06:17:22;0.93;;;0.60;;
35540;SDS011;21650;48.840;9.162;2024-03-23T06:19:47;0.70;;;0.60;;
35540;SDS011;21650;48.840;9.162;2024-03-23T06:22:14;2.40;;;0.70;;
35540;SDS011;21650;48.840;9.162;2024-03-23T06:24:39;1.30;;;1.30;;
35540;SDS011;21650;48.840;9.162;2024-03-23T06:27:05;0.67;;;0.63;;
35540;SDS011;21650;48.840;9.162;2024-03-23T06:29:31;0.83;;;0.83;;
35540;SDS011;21650;48.840;9.162;2024-03-23T06:31:57;1.63;;;0.53;;
35540;SDS011;21650;48.840;9.162;2024-03-23T06:34:23;1.03;;;0.60;;
35540;SDS011;21650;48.840;9.162;2024-03-23T06:36:49;0.50;;;0.50;;
35540;SDS011;21650;48.840;9.162;2024-03-23T06:39:17;0.20;;;0.20;;
35540;SDS011;21650;48.840;9.162;2024-03-23T06:41:51;0.40;;;0.40;;
35540;SDS011;21650;48.840;9.162;2024-03-23T06:44:18;0.20;;;0.20;;
35540;SDS011;21650;48.840;9.162;2024-03-23T06:46:44;0.00;;;0.00;;
35540;SDS011;21650;48.840;9.162;2024-03-23T06:49:10;0.63;;;0.63;;
35540;SDS011;21650;48.840;9.162;2024-03-23T06:51:36;0.57;;;0.40;;
35540;SDS011;21650;48.840;9.162;2024-03-23T06:54:03;0.20;;;0.20;;
35540;SDS011;21650;48.840;9.162;2024-03-23T06:56:29;0.10;;;0.10;;
35540;SDS011;21650;48.840;9.162;2024-03-23T06:58:55;0.00;;;0.00;;
35540;SDS011;21650;48.840;9.162;2024-03-23T07:01:21;0.13;;;0.13;;
35540;SDS011;21650;48.840;9.162;2024-03-23T07:03:46;0.00;;;0.00;;
35540;SDS011;21650;48.840;9.162;2024-03-23T07:06:12;0.10;;;0.10;;
35540;SDS011;21650;48.840;9.162;2024-03-23T07:08:37;0.20;;;0.20;;
35540;SDS011;21650;48.840;9.162;2024-03-23T07:11:03;0.73;;;0.50;;
35540;SDS011;21650;48.840;9.162;2024-03-23T07:13:29;0.10;;;0.10;;
35540;SDS011;21650;48.840;9.162;2024-03-23T07:15:55;0.10;;;0.10;;
35540;SDS011;21650;48.840;9.162;2024-03-23T07:18:21;0.20;;;0.20;;
35540;SDS011;21650;48.840;9.162;2024-03-23T07:20:56;0.00;;;0.00;;
35540;SDS011;21650;48.840;9.162;2024-03-23T07:23:23;0.20;;;0.20;;
35540;SDS011;21650;48.840;9.162;2024-03-23T07:26:01;0.10;;;0.10;;
35540;SDS011;21650;48.840;9.162;2024-03-23T07:28:33;0.27;;;0.27;;
35540;SDS011;21650;48.840;9.162;2024-03-23T07:31:07;0.13;;;0.13;;
35540;SDS011;21650;48.840;9.162;2024-03-23T07:33:34;0.10;;;0.10;;
35540;SDS011;21650;48.840;9.162;2024-03-23T07:36:00;0.07;;;0.07;;
35540;SDS011;21650;48.840;9.162;2024-03-23T07:38:27;0.10;;;0.10;;
35540;SDS011;21650;48.840;9.162;2024-03-23T07:41:09;3.70;;;1.10;;
35540;SDS011;21650;48.840;9.162;2024-03-23T07:43:39;0.00;;;0.00;;
35540;SDS011;21650;48.840;9.162;2024-03-23T07:46:05;0.10;;;0.10;;
35540;SDS011;21650;48.840;9.162;2024-03-23T07:48:31;0.00;;;0.00;;
35540;SDS011;21650;48.840;9.162;2024-03-23T07:53:36;0.00;;;0.00;;
35540;SDS011;21650;48.840;9.162;2024-03-23T07:56:03;0.10;;;0.10;;
35540;SDS011;21650;48.840;9.162;2024-03-23T07:58:29;0.00;;;0.00;;
35540;SDS011;21650;48.840;9.162;2024-03-23T08:00:55;0.00;;;0.00;;
35540;SDS011;21650;48.840;9.162;2024-03-23T08:03:21;0.20;;;0.20;;
35540;SDS011;21650;48.840;9.162;2024-03-23T08:05:47;0.00;;;0.00;;
35540;SDS011;21650;48.840;9.162;2024-03-23T08:08:13;0.67;;;0.40;;
35540;SDS011;21650;48.840;9.162;2024-03-23T08:10:48;0.20;;;0.20;;
35540;SDS011;21650;48.840;9.162;2024-03-23T08:13:17;0.00;;;0.00;;
35540;SDS011;21650;48.840;9.162;2024-03-23T08:15:44;0.03;;;0.03;;
35540;SDS011;21650;48.840;9.162;2024-03-23T08:18:11;1.30;;;0.33;;
35540;SDS011;21650;48.840;9.162;2024-03-23T08:20:36;0.10;;;0.10;;
35540;SDS011;21650;48.840;9.162;2024-03-23T08:23:02;0.77;;;0.77;;
35540;SDS011;21650;48.840;9.162;2024-03-23T08:25:30;0.10;;;0.10;;
35540;SDS011;21650;48.840;9.162;2024-03-23T08:27:57;0.00;;;0.00;;
35540;SDS011;21650;48.840;9.162;2024-03-23T08:30:22;0.30;;;0.30;;
35540;SDS011;21650;48.840;9.162;2024-03-23T08:32:48;0.43;;;0.43;;
35540;SDS011;21650;48.840;9.162;2024-03-23T08:35:14;0.00;;;0.00;;
35540;SDS011;21650;48.840;9.162;2024-03-23T08:37:39;0.10;;;0.10;;
35540;SDS011;21650;48.840;9.162;2024-03-23T08:40:05;0.10;;;0.10;;
35540;SDS011;21650;48.840;9.162;2024-03-23T08:42:31;0.00;;;0.00;;
35540;SDS011;21650;48.840;9.162;2024-03-23T08:44:57;0.03;;;0.03;;
35540;SDS011;21650;48.840;9.162;2024-03-23T08:47:22;0.13;;;0.13;;
35540;SDS011;21650;48.840;9.162;2024-03-23T08:49:48;0.30;;;0.30;;
35540;SDS011;21650;48.840;9.162;2024-03-23T08:52:14;0.00;;;0.00;;
35540;SDS011;21650;48.840;9.162;2024-03-23T08:54:40;0.20;;;0.20;;
35540;SDS011;21650;48.840;9.162;2024-03-23T08:57:05;0.27;;;0.27;;
35540;SDS011;21650;48.840;9.162;2024-03-23T08:59:32;0.67;;;0.43;;
35540;SDS011;21650;48.840;9.162;2024-03-23T09:01:57;0.87;;;0.87;;
35540;SDS011;21650;48.840;9.162;2024-03-23T09:04:23;0.10;;;0.10;;
35540;SDS011;21650;48.840;9.162;2024-03-23T09:06:49;0.03;;;0.03;;
35540;SDS011;21650;48.840;9.162;2024-03-23T09:09:15;0.10;;;0.10;;
35540;SDS011;21650;48.840;9.162;2024-03-23T09:11:40;1.03;;;0.93;;
35540;SDS011;21650;48.840;9.162;2024-03-23T09:14:06;0.40;;;0.33;;
35540;SDS011;21650;48.840;9.162;2024-03-23T09:16:31;0.60;;;0.60;;
35540;SDS011;21650;48.840;9.162;2024-03-23T09:18:57;0.40;;;0.40;;
35540;SDS011;21650;48.840;9.162;2024-03-23T09:21:23;0.33;;;0.10;;
35540;SDS011;21650;48.840;9.162;2024-03-23T09:23:48;0.20;;;0.20;;
35540;SDS011;21650;48.840;9.162;2024-03-23T09:26:14;0.37;;;0.20;;
35540;SDS011;21650;48.840;9.162;2024-03-23T09:28:40;0.30;;;0.30;;
35540;SDS011;21650;48.840;9.162;2024-03-23T09:31:06;0.03;;;0.03;;
35540;SDS011;21650;48.840;9.162;2024-03-23T09:33:32;0.50;;;0.50;;
35540;SDS011;21650;48.840;9.162;2024-03-23T09:36:02;0.50;;;0.50;;
35540;SDS011;21650;48.840;9.162;2024-03-23T09:38:28;0.67;;;0.67;;
35540;SDS011;21650;48.840;9.162;2024-03-23T09:40:54;0.10;;;0.10;;
35540;SDS011;21650;48.840;9.162;2024-03-23T09:43:20;1.03;;;0.50;;
35540;SDS011;21650;48.840;9.162;2024-03-23T09:45:45;0.30;;;0.30;;
35540;SDS011;21650;48.840;9.162;2024-03-23T09:48:11;0.67;;;0.40;;
35540;SDS011;21650;48.840;9.162;2024-03-23T09:50:42;0.20;;;0.20;;
35540;SDS011;21650;48.840;9.162;2024-03-23T09:53:09;1.70;;;0.50;;
35540;SDS011;21650;48.840;9.162;2024-03-23T09:55:39;2.40;;;1.50;;
35540;SDS011;21650;48.840;9.162;2024-03-23T09:58:06;0.30;;;0.30;;
35540;SDS011;21650;48.840;9.162;2024-03-23T10:00:33;0.10;;;0.10;;
35540;SDS011;21650;48.840;9.162;2024-03-23T10:02:59;1.57;;;0.93;;
35540;SDS011;21650;48.840;9.162;2024-03-23T10:05:29;0.37;;;0.27;;
35540;SDS011;21650;48.840;9.162;2024-03-23T10:10:38;0.43;;;0.43;;
35540;SDS011;21650;48.840;9.162;2024-03-23T10:13:05;6.03;;;0.67;;
35540;SDS011;21650;48.840;9.162;2024-03-23T10:15:32;1.03;;;0.63;;
35540;SDS011;21650;48.840;9.162;2024-03-23T10:18:06;1.70;;;1.20;;
35540;SDS011;21650;48.840;9.162;2024-03-23T10:20:43;1.53;;;1.33;;
35540;SDS011;21650;48.840;9.162;2024-03-23T10:23:16;0.73;;;0.67;;
35540;SDS011;21650;48.840;9.162;2024-03-23T10:25:42;0.87;;;0.80;;
35540;SDS011;21650;48.840;9.162;2024-03-23T10:28:07;0.20;;;0.20;;
35540;SDS011;21650;48.840;9.162;2024-03-23T10:30:34;0.40;;;0.33;;
35540;SDS011;21650;48.840;9.162;2024-03-23T10:33:07;0.27;;;0.27;;
35540;SDS011;21650;48.840;9.162;2024-03-23T10:35:34;1.50;;;1.03;;
35540;SDS011;21650;48.840;9.162;2024-03-23T10:38:00;1.17;;;1.10;;
35540;SDS011;21650;48.840;9.162;2024-03-23T10:40:27;2.00;;;1.83;;
35540;SDS011;21650;48.840;9.162;2024-03-23T10:42:55;1.30;;;0.77;;
35540;SDS011;21650;48.840;9.162;2024-03-23T10:45:23;0.83;;;0.83;;
35540;SDS011;21650;48.840;9.162;2024-03-23T10:47:48;0.10;;;0.10;;
35540;SDS011;21650;48.840;9.162;2024-03-23T10:50:14;0.63;;;0.63;;
35540;SDS011;21650;48.840;9.162;2024-03-23T10:52:40;0.73;;;0.73;;
35540;SDS011;21650;48.840;9.162;2024-03-23T10:55:10;0.30;;;0.23;;
35540;SDS011;21650;48.840;9.162;2024-03-23T10:57:41;1.27;;;1.27;;
35540;SDS011;21650;48.840;9.162;2024-03-23T11:00:10;0.30;;;0.27;;
35540;SDS011;21650;48.840;9.162;2024-03-23T11:02:37;1.47;;;1.37;;
35540;SDS011;21650;48.840;9.162;2024-03-23T11:05:20;6.03;;;0.50;;
35540;SDS011;21650;48.840;9.162;2024-03-23T11:07:51;0.90;;;0.90;;
35540;SDS011;21650;48.840;9.162;2024-03-23T11:10:35;0.67;;;0.67;;
35540;SDS011;21650;48.840;9.162;2024-03-23T11:15:47;1.57;;;1.10;;
35540;SDS011;21650;48.840;9.162;2024-03-23T11:18:12;0.03;;;0.03;;
35540;SDS011;21650;48.840;9.162;2024-03-23T11:20:45;0.13;;;0.13;;
35540;SDS011;21650;48.840;9.162;2024-03-23T11:23:26;0.33;;;0.33;;
35540;SDS011;21650;48.840;9.162;2024-03-23T11:25:53;2.73;;;1.80;;
35540;SDS011;21650;48.840;9.162;2024-03-23T11:28:18;0.40;;;0.40;;
35540;SDS011;21650;48.840;9.162;2024-03-23T11:30:44;0.93;;;0.70;;
35540;SDS011;21650;48.840;9.162;2024-03-23T11:33:09;0.50;;;0.50;;
35540;SDS011;21650;48.840;9.162;2024-03-23T11:35:39;1.00;;;0.67;;
35540;SDS011;21650;48.840;9.162;2024-03-23T11:38:05;2.67;;;0.57;;
35540;SDS011;21650;48.840;9.162;2024-03-23T11:40:39;0.30;;;0.30;;
35540;SDS011;21650;48.840;9.162;2024-03-23T11:43:10;1.60;;;0.57;;
35540;SDS011;21650;48.840;9.162;2024-03-23T11:45:44;0.40;;;0.40;;
35540;SDS011;21650;48.840;9.162;2024-03-23T11:48:19;2.13;;;0.70;;
35540;SDS011;21650;48.840;9.162;2024-03-23T11:50:49;0.30;;;0.23;;
35540;SDS011;21650;48.840;9.162;2024-03-23T11:53:20;0.17;;;0.17;;
35540;SDS011;21650;48.840;9.162;2024-03-23T11:55:48;0.10;;;0.10;;
35540;SDS011;21650;48.840;9.162;2024-03-23T11:58:18;0.20;;;0.20;;
35540;SDS011;21650;48.840;9.162;2024-03-23T12:00:57;1.03;;;0.30;;
35540;SDS011;21650;48.840;9.162;2024-03-23T12:03:24;0.57;;;0.47;;
35540;SDS011;21650;48.840;9.162;2024-03-23T12:05:52;0.70;;;0.70;;
35540;SDS011;21650;48.840;9.162;2024-03-23T12:10:49;0.30;;;0.30;;
35540;SDS011;21650;48.840;9.162;2024-03-23T12:13:20;0.30;;;0.30;;
35540;SDS011;21650;48.840;9.162;2024-03-23T12:15:49;0.30;;;0.23;;
35540;SDS011;21650;48.840;9.162;2024-03-23T12:18:16;0.63;;;0.63;;
35540;SDS011;21650;48.840;9.162;2024-03-23T12:20:42;0.10;;;0.10;;
35540;SDS011;21650;48.840;9.162;2024-03-23T12:23:08;0.10;;;0.10;;
35540;SDS011;21650;48.840;9.162;2024-03-23T12:25:36;2.70;;;0.53;;
35540;SDS011;21650;48.840;9.162;2024-03-23T12:28:03;0.20;;;0.20;;
35540;SDS011;21650;48.840;9.162;2024-03-23T12:30:31;3.30;;;1.23;;
35540;SDS011;21650;48.840;9.162;2024-03-23T12:33:04;0.00;;;0.00;;
35540;SDS011;21650;48.840;9.162;2024-03-23T12:35:30;1.80;;;1.70;;
35540;SDS011;21650;48.840;9.162;2024-03-23T12:37:56;0.30;;;0.30;;
35540;SDS011;21650;48.840;9.162;2024-03-23T12:40:22;0.00;;;0.00;;
35540;SDS011;21650;48.840;9.162;2024-03-23T12:42:48;0.20;;;0.20;;
35540;SDS011;21650;48.840;9.162;2024-03-23T12:45:14;0.20;;;0.20;;
35540;SDS011;21650;48.840;9.162;2024-03-23T12:47:39;1.03;;;0.60;;
35540;SDS011;21650;48.840;9.162;2024-03-23T12:50:05;2.30;;;1.03;;
35540;SDS011;21650;48.840;9.162;2024-03-23T12:52:32;0.20;;;0.20;;
35540;SDS011;21650;48.840;9.162;2024-03-23T12:54:58;0.97;;;0.50;;
35540;SDS011;21650;48.840;9.162;2024-03-23T12:57:24;1.50;;;0.40;;
35540;SDS011;21650;48.840;9.162;2024-03-23T12:59:50;2.30;;;2.13;;
35540;SDS011;21650;48.840;9.162;2024-03-23T13:02:18;2.23;;;0.33;;
35540;SDS011;21650;48.840;9.162;2024-03-23T13:04:49;0.57;;;0.47;;
35540;SDS011;21650;48.840;9.162;2024-03-23T13:07:16;0.10;;;0.10;;
35540;SDS011;21650;48.840;9.162;2024-03-23T13:09:42;3.67;;;0.70;;
35540;SDS011;21650;48.840;9.162;2024-03-23T13:12:08;1.53;;;0.50;;
35540;SDS011;21650;48.840;9.162;2024-03-23T13:14:34;0.30;;;0.23;;
35540;SDS011;21650;48.840;9.162;2024-03-23T13:16:59;0.47;;;0.47;;
35540;SDS011;21650;48.840;9.162;2024-03-23T13:19:25;0.10;;;0.10;;
35540;SDS011;21650;48.840;9.162;2024-03-23T13:21:55;1.63;;;0.43;;
35540;SDS011;21650;48.840;9.162;2024-03-23T13:24:27;0.27;;;0.27;;
35540;SDS011;21650;48.840;9.162;2024-03-23T13:26:53;5.00;;;1.80;;
35540;SDS011;21650;48.840;9.162;2024-03-23T13:29:19;2.10;;;1.17;;
35540;SDS011;21650;48.840;9.162;2024-03-23T13:31:46;8.07;;;0.30;;
35540;SDS011;21650;48.840;9.162;2024-03-23T13:34:15;2.00;;;0.43;;
35540;SDS011;21650;48.840;9.162;2024-03-23T13:36:41;0.20;;;0.20;;
35540;SDS011;21650;48.840;9.162;2024-03-23T13:39:08;3.80;;;2.07;;
35540;SDS011;21650;48.840;9.162;2024-03-23T13:41:40;0.17;;;0.17;;
35540;SDS011;21650;48.840;9.162;2024-03-23T13:44:07;0.00;;;0.00;;
35540;SDS011;21650;48.840;9.162;2024-03-23T13:46:33;2.23;;;0.33;;
35540;SDS011;21650;48.840;9.162;2024-03-23T13:48:59;2.53;;;0.47;;
35540;SDS011;21650;48.840;9.162;2024-03-23T13:51:25;0.60;;;0.40;;
35540;SDS011;21650;48.840;9.162;2024-03-23T13:53:54;0.10;;;0.10;;
35540;SDS011;21650;48.840;9.162;2024-03-23T13:56:21;0.60;;;0.50;;
35540;SDS011;21650;48.840;9.162;2024-03-23T13:58:50;0.00;;;0.00;;
35540;SDS011;21650;48.840;9.162;2024-03-23T14:01:15;0.47;;;0.47;;
35540;SDS011;21650;48.840;9.162;2024-03-23T14:03:42;0.00;;;0.00;;
35540;SDS011;21650;48.840;9.162;2024-03-23T14:06:08;0.00;;;0.00;;
35540;SDS011;21650;48.840;9.162;2024-03-23T14:08:35;0.50;;;0.50;;
35540;SDS011;21650;48.840;9.162;2024-03-23T14:11:03;0.20;;;0.20;;
35540;SDS011;21650;48.840;9.162;2024-03-23T14:13:29;0.10;;;0.10;;
35540;SDS011;21650;48.840;9.162;2024-03-23T14:15:55;0.73;;;0.73;;
35540;SDS011;21650;48.840;9.162;2024-03-23T14:18:21;0.20;;;0.10;;
35540;SDS011;21650;48.840;9.162;2024-03-23T14:20:48;0.00;;;0.00;;
35540;SDS011;21650;48.840;9.162;2024-03-23T14:23:14;0.27;;;0.07;;
35540;SDS011;21650;48.840;9.162;2024-03-23T14:25:40;0.10;;;0.10;;
35540;SDS011;21650;48.840;9.162;2024-03-23T14:28:06;0.00;;;0.00;;
35540;SDS011;21650;48.840;9.162;2024-03-23T14:30:38;0.23;;;0.20;;
35540;SDS011;21650;48.840;9.162;2024-03-23T14:33:04;0.10;;;0.10;;
35540;SDS011;21650;48.840;9.162;2024-03-23T14:35:29;0.00;;;0.00;;
35540;SDS011;21650;48.840;9.162;2024-03-23T14:37:56;0.10;;;0.10;;
35540;SDS011;21650;48.840;9.162;2024-03-23T14:40:21;0.10;;;0.10;;
35540;SDS011;21650;48.840;9.162;2024-03-23T14:42:47;0.00;;;0.00;;
35540;SDS011;21650;48.840;9.162;2024-03-23T14:45:12;0.20;;;0.20;;
35540;SDS011;21650;48.840;9.162;2024-03-23T14:47:40;0.10;;;0.10;;
35540;SDS011;21650;48.840;9.162;2024-03-23T14:50:07;0.20;;;0.20;;
35540;SDS011;21650;48.840;9.162;2024-03-23T14:52:33;0.00;;;0.00;;
35540;SDS011;21650;48.840;9.162;2024-03-23T14:54:59;0.00;;;0.00;;
35540;SDS011;21650;48.840;9.162;2024-03-23T14:57:24;0.00;;;0.00;;
35540;SDS011;21650;48.840;9.162;2024-03-23T14:59:50;0.83;;;0.63;;
35540;SDS011;21650;48.840;9.162;2024-03-23T15:02:18;1.70;;;0.57;;
35540;SDS011;21650;48.840;9.162;2024-03-23T15:04:43;0.67;;;0.37;;
35540;SDS011;21650;48.840;9.162;2024-03-23T15:07:09;1.20;;;0.63;;
35540;SDS011;21650;48.840;9.162;2024-03-23T15:09:34;0.00;;;0.00;;
35540;SDS011;21650;48.840;9.162;2024-03-23T15:12:00;3.87;;;0.30;;
35540;SDS011;21650;48.840;9.162;2024-03-23T15:14:25;0.10;;;0.10;;
35540;SDS011;21650;48.840;9.162;2024-03-23T15:16:51;0.30;;;0.30;;
35540;SDS011;21650;48.840;9.162;2024-03-23T15:19:17;0.07;;;0.07;;
35540;SDS011;21650;48.840;9.162;2024-03-23T15:21:43;11.23;;;2.10;;
35540;SDS011;21650;48.840;9.162;2024-03-23T15:24:09;0.10;;;0.10;;
35540;SDS011;21650;48.840;9.162;2024-03-23T15:26:36;0.13;;;0.13;;
35540;SDS011;21650;48.840;9.162;2024-03-23T15:29:02;0.20;;;0.20;;
35540;SDS011;21650;48.840;9.162;2024-03-23T15:31:27;0.00;;;0.00;;
35540;SDS011;21650;48.840;9.162;2024-03-23T15:33:54;0.10;;;0.10;;
35540;SDS011;21650;48.840;9.162;2024-03-23T15:36:20;0.10;;;0.10;;
35540;SDS011;21650;48.840;9.162;2024-03-23T15:38:46;0.10;;;0.10;;
35540;SDS011;21650;48.840;9.162;2024-03-23T15:41:14;0.20;;;0.20;;
35540;SDS011;21650;48.840;9.162;2024-03-23T15:43:39;0.20;;;0.20;;
35540;SDS011;21650;48.840;9.162;2024-03-23T15:46:06;0.13;;;0.13;;
35540;SDS011;21650;48.840;9.162;2024-03-23T15:48:32;0.00;;;0.00;;
35540;SDS011;21650;48.840;9.162;2024-03-23T15:51:00;0.07;;;0.07;;